Time;durP1;ratioP1;P1;durP2;ratioP2;P2;SDS_P1;SDS_P2;PMS_P1;PMS_P2;Temp;Humidity;BMP_temperature;BMP_pressure;BME280_temperature;BME280_humidity;BME280_pressure;Samples;Min_cycle;Max_cycle;Signal;HPM_P1;HPM_P2
2021/09/30 00:00:32;;;;;;;8.05;4.90;;;15.20;99.90;;;;;;4962710;28;20050;-52
2021/09/30 00:02:58;;;;;;;10.23;4.43;;;15.20;99.90;;;;;;5009528;28;20392;-51
2021/09/30 00:05:23;;;;;;;11.13;4.78;;;15.20;99.90;;;;;;5015217;28;20028;-51
2021/09/30 00:07:49;;;;;;;7.70;4.32;;;15.20;99.90;;;;;;5012185;28;20038;-48
2021/09/30 00:10:22;;;;;;;5.15;4.05;;;15.20;99.90;;;;;;5008363;28;20042;-53
2021/09/30 00:12:55;;;;;;;8.80;4.07;;;15.20;99.90;;;;;;5014681;28;20040;-48
2021/09/30 00:15:36;;;;;;;7.63;4.57;;;15.20;99.90;;;;;;5009869;28;20034;-49
2021/09/30 00:47:49;;;;;;;5.90;4.25;;;15.50;99.90;;;;;;4968098;28;20380;-49
2021/09/30 02:58:58;;;;;;;11.07;4.50;;;16.70;99.90;;;;;;4950903;29;20476;-50
2021/09/30 03:01:29;;;;;;;7.13;4.88;;;16.70;99.90;;;;;;4952672;29;20123;-49
2021/09/30 03:03:56;;;;;;;8.82;5.00;;;16.70;99.90;;;;;;4952017;29;20914;-51
2021/09/30 03:06:22;;;;;;;5.45;3.90;;;16.70;99.90;;;;;;4952101;29;20464;-49
2021/09/30 03:08:54;;;;;;;7.28;4.55;;;16.70;99.90;;;;;;4952359;29;20066;-51
2021/09/30 03:11:21;;;;;;;7.60;4.70;;;16.70;99.90;;;;;;4951980;29;20047;-50
2021/09/30 03:13:48;;;;;;;5.45;4.78;;;16.80;99.90;;;;;;4951806;29;20043;-49
2021/09/30 03:16:24;;;;;;;5.82;4.03;;;16.80;99.90;;;;;;4951530;29;20047;-48
2021/09/30 03:24:09;;;;;;;7.60;4.63;;;16.80;99.90;;;;;;4969566;28;20052;-51
2021/09/30 03:26:36;;;;;;;5.20;4.70;;;16.80;99.90;;;;;;4954199;28;20035;-49
2021/09/30 03:29:02;;;;;;;5.93;4.68;;;16.80;99.90;;;;;;4990571;28;20098;-50
2021/09/30 03:31:33;;;;;;;12.82;6.32;;;16.80;99.90;;;;;;4974580;28;20046;-49
2021/09/30 03:34:01;;;;;;;10.97;5.63;;;16.80;99.90;;;;;;4993976;28;20479;-48
2021/09/30 03:36:28;;;;;;;7.75;5.40;;;16.70;99.90;;;;;;5008221;28;20049;-48
2021/09/30 03:38:54;;;;;;;6.93;5.22;;;16.70;99.90;;;;;;5016407;28;20045;-49
2021/09/30 03:41:20;;;;;;;8.82;6.22;;;16.80;99.90;;;;;;5013387;28;20494;-51
2021/09/30 03:43:46;;;;;;;6.55;4.82;;;16.70;99.90;;;;;;5013778;28;20061;-51
2021/09/30 03:46:12;;;;;;;8.15;5.15;;;16.70;99.90;;;;;;5013830;28;20436;-50
2021/09/30 03:48:52;;;;;;;8.68;5.15;;;16.70;99.90;;;;;;5013844;28;20072;-48
2021/09/30 03:59:29;;;;;;;6.05;4.85;;;16.70;99.90;;;;;;4958734;28;20053;-52
2021/09/30 04:01:56;;;;;;;9.85;5.80;;;16.70;99.90;;;;;;4971587;28;20121;-49
2021/09/30 04:04:26;;;;;;;9.23;4.95;;;16.60;99.90;;;;;;4970818;28;20055;-47
2021/09/30 04:06:53;;;;;;;7.93;5.38;;;16.60;99.90;;;;;;4973574;28;20034;-48
2021/09/30 04:09:20;;;;;;;9.77;5.47;;;16.60;99.90;;;;;;4974179;28;20067;-50
2021/09/30 04:11:46;;;;;;;9.30;5.05;;;16.60;99.90;;;;;;4942941;28;20438;-48
2021/09/30 04:14:11;;;;;;;8.43;5.65;;;16.60;99.90;;;;;;4970807;28;20035;-49
2021/09/30 04:16:37;;;;;;;9.80;6.40;;;16.50;99.90;;;;;;4957348;28;20046;-49
2021/09/30 04:19:03;;;;;;;7.93;6.47;;;16.50;99.90;;;;;;4941961;28;20034;-52
2021/09/30 04:21:31;;;;;;;10.32;7.70;;;16.50;99.90;;;;;;4958241;28;20041;-48
2021/09/30 04:23:57;;;;;;;11.80;9.25;;;;;;;;;;4974053;28;20074;-51
2021/09/30 04:26:23;;;;;;;14.57;11.60;;;16.50;99.90;;;;;;4974807;28;20026;-50
2021/09/30 04:28:49;;;;;;;17.95;12.68;;;16.50;99.90;;;;;;4973928;28;20522;-51
2021/09/30 04:31:15;;;;;;;22.25;12.88;;;16.60;99.90;;;;;;4994206;28;20037;-48
2021/09/30 04:33:40;;;;;;;18.65;13.10;;;16.50;99.90;;;;;;5013087;28;20026;-51
2021/09/30 04:36:06;;;;;;;16.23;11.23;;;16.50;99.90;;;;;;4995483;28;20042;-50
2021/09/30 04:38:32;;;;;;;17.17;11.27;;;16.50;99.90;;;;;;4996952;28;20379;-52
2021/09/30 04:40:57;;;;;;;16.75;12.27;;;16.50;99.90;;;;;;5012044;28;20516;-50
2021/09/30 04:43:23;;;;;;;18.08;11.48;;;16.50;99.90;;;;;;5013261;28;20025;-51
2021/09/30 04:45:49;;;;;;;16.13;11.23;;;;;;;;;;4996694;28;20049;-50
2021/09/30 04:48:15;;;;;;;20.20;12.27;;;;;;;;;;4996408;28;20037;-49
2021/09/30 04:50:43;;;;;;;16.90;12.27;;;;;;;;;;5014240;28;20390;-50
2021/09/30 04:53:09;;;;;;;16.58;11.15;;;16.40;99.90;;;;;;5013369;28;20034;-48
2021/09/30 04:55:35;;;;;;;13.45;11.02;;;16.50;99.90;;;;;;5012987;28;20026;-50
2021/09/30 04:58:01;;;;;;;14.02;10.18;;;16.50;99.90;;;;;;5013376;28;20026;-50
2021/09/30 05:00:27;;;;;;;15.50;9.48;;;16.50;99.90;;;;;;5014957;28;20022;-48
2021/09/30 05:02:53;;;;;;;15.13;8.23;;;16.50;99.90;;;;;;5009484;28;20041;-52
2021/09/30 05:05:19;;;;;;;9.40;7.95;;;16.40;99.90;;;;;;5010165;28;20363;-49
2021/09/30 05:07:44;;;;;;;10.95;7.60;;;16.40;99.90;;;;;;4994714;28;20034;-48
2021/09/30 05:10:13;;;;;;;13.32;8.40;;;16.30;99.90;;;;;;5008002;28;20049;-48
2021/09/30 05:12:41;;;;;;;13.10;9.07;;;16.40;99.90;;;;;;5011202;28;20042;-50
2021/09/30 05:15:07;;;;;;;11.38;9.18;;;16.50;99.90;;;;;;5014204;28;20120;-52
2021/09/30 05:17:33;;;;;;;14.20;9.63;;;16.50;99.90;;;;;;4993526;28;20117;-50
2021/09/30 05:19:59;;;;;;;10.20;8.23;;;16.60;99.90;;;;;;4995924;28;20145;-51
2021/09/30 05:22:25;;;;;;;16.30;9.43;;;16.50;99.90;;;;;;5014909;28;20026;-49
2021/09/30 05:24:50;;;;;;;16.20;8.70;;;16.60;99.90;;;;;;5011707;28;20052;-50
2021/09/30 05:27:16;;;;;;;16.65;8.98;;;16.60;99.90;;;;;;5013607;28;20087;-48
2021/09/30 05:29:42;;;;;;;11.32;8.43;;;16.70;99.90;;;;;;4988023;28;20046;-50
2021/09/30 05:32:08;;;;;;;12.68;8.15;;;16.80;99.90;;;;;;5007517;28;20034;-48
2021/09/30 05:34:34;;;;;;;16.73;8.80;;;16.80;99.90;;;;;;5013321;28;20045;-48
2021/09/30 05:37:00;;;;;;;14.05;7.93;;;16.80;99.90;;;;;;5012252;28;20034;-51
2021/09/30 05:39:26;;;;;;;12.82;10.15;;;16.80;99.90;;;;;;5010600;28;20430;-49
2021/09/30 05:41:54;;;;;;;15.32;9.82;;;16.90;99.90;;;;;;5010238;28;20033;-49
2021/09/30 05:44:23;;;;;;;21.10;9.13;;;16.80;99.90;;;;;;5010784;28;20100;-49
2021/09/30 05:46:53;;;;;;;12.27;8.50;;;16.90;99.90;;;;;;5006835;28;20459;-48
2021/09/30 05:49:21;;;;;;;10.60;6.75;;;16.80;99.90;;;;;;4986351;28;20437;-51
2021/09/30 05:51:47;;;;;;;8.48;6.22;;;16.80;99.90;;;;;;5006203;28;20543;-51
2021/09/30 05:54:12;;;;;;;12.20;6.70;;;16.70;99.90;;;;;;5010028;28;20065;-52
2021/09/30 05:56:38;;;;;;;9.90;6.53;;;16.50;99.90;;;;;;5008132;28;21207;-53
2021/09/30 05:59:04;;;;;;;7.95;6.20;;;16.50;99.90;;;;;;5011099;28;20033;-52
2021/09/30 06:14:28;;;;;;;9.55;6.28;;;16.90;99.90;;;;;;5010558;28;20418;-50
2021/09/30 06:16:55;;;;;;;7.45;5.63;;;17.00;99.90;;;;;;4992603;28;20053;-53
2021/09/30 06:19:21;;;;;;;8.45;6.75;;;17.00;99.90;;;;;;4994448;28;20053;-51
2021/09/30 06:21:48;;;;;;;9.27;6.55;;;17.10;99.90;;;;;;5009796;28;20049;-51
2021/09/30 06:24:16;;;;;;;11.00;7.07;;;17.20;99.90;;;;;;5008833;28;20041;-52
2021/09/30 06:26:42;;;;;;;9.27;6.68;;;17.20;99.90;;;;;;5010342;28;20033;-52
2021/09/30 06:29:07;;;;;;;10.55;7.18;;;17.30;99.90;;;;;;5007955;28;20045;-51
2021/09/30 06:31:33;;;;;;;10.77;7.50;;;17.40;99.90;;;;;;5009433;28;20478;-50
2021/09/30 06:33:59;;;;;;;11.02;7.65;;;17.40;99.90;;;;;;5008198;28;20466;-51
2021/09/30 06:36:25;;;;;;;9.02;7.40;;;17.50;99.90;;;;;;5008682;28;20112;-51
2021/09/30 06:38:51;;;;;;;13.05;7.95;;;17.50;99.90;;;;;;5011458;28;20046;-54
2021/09/30 06:41:18;;;;;;;11.80;8.15;;;17.40;99.90;;;;;;4972932;28;20053;-52
2021/09/30 06:43:43;;;;;;;10.65;7.40;;;17.40;99.90;;;;;;5002527;28;20044;-51
2021/09/30 06:46:09;;;;;;;12.05;7.97;;;17.40;99.90;;;;;;5008143;28;20057;-50
2021/09/30 06:48:35;;;;;;;11.00;7.70;;;17.50;99.90;;;;;;5011091;28;20084;-51
2021/09/30 06:51:01;;;;;;;15.68;9.93;;;17.60;99.90;;;;;;5008121;28;20084;-53
2021/09/30 06:53:26;;;;;;;20.40;12.70;;;17.60;99.90;;;;;;5009872;28;20029;-50
2021/09/30 06:55:52;;;;;;;25.92;13.70;;;17.50;99.90;;;;;;5005181;28;20038;-54
2021/09/30 06:58:23;;;;;;;19.20;12.23;;;17.80;99.90;;;;;;5002997;28;20038;-52
2021/09/30 07:00:49;;;;;;;16.33;10.75;;;17.50;99.90;;;;;;5012978;28;20080;-51
2021/09/30 07:03:15;;;;;;;19.00;9.57;;;17.50;99.90;;;;;;4986426;28;20494;-55
2021/09/30 07:05:41;;;;;;;12.60;9.20;;;17.50;99.90;;;;;;4992411;28;20367;-51
2021/09/30 07:08:07;;;;;;;15.63;9.02;;;17.60;99.90;;;;;;4990614;28;20042;-52
2021/09/30 07:10:32;;;;;;;12.18;8.13;;;17.50;99.90;;;;;;5006725;28;20485;-51
2021/09/30 07:12:58;;;;;;;11.57;8.43;;;17.30;99.90;;;;;;5005641;28;20034;-51
2021/09/30 07:15:24;;;;;;;10.75;8.77;;;17.20;99.90;;;;;;4987748;28;20394;-50
2021/09/30 07:17:50;;;;;;;10.90;8.15;;;17.40;99.90;;;;;;5005869;28;20494;-47
2021/09/30 07:20:16;;;;;;;13.40;8.45;;;17.10;99.90;;;;;;4984954;28;20080;-52
2021/09/30 07:22:42;;;;;;;12.93;8.15;;;17.20;99.90;;;;;;5006986;28;20057;-49
2021/09/30 07:25:08;;;;;;;13.10;8.02;;;17.20;99.90;;;;;;5005927;28;20026;-52
2021/09/30 07:27:35;;;;;;;16.20;9.63;;;17.20;99.90;;;;;;5007183;28;20042;-49
2021/09/30 07:30:01;;;;;;;11.23;8.02;;;17.10;99.90;;;;;;5002500;28;20142;-49
2021/09/30 07:32:27;;;;;;;14.07;8.15;;;17.10;99.90;;;;;;5005794;28;20038;-49
2021/09/30 07:34:52;;;;;;;13.63;8.73;;;17.10;99.90;;;;;;5007648;28;20097;-50
2021/09/30 07:37:19;;;;;;;12.48;8.15;;;17.20;99.90;;;;;;4970400;28;20174;-50
2021/09/30 07:39:45;;;;;;;9.95;6.90;;;17.00;99.90;;;;;;5004945;28;20537;-52
2021/09/30 07:42:10;;;;;;;9.45;6.90;;;17.10;99.90;;;;;;5009286;28;20034;-51
2021/09/30 07:44:37;;;;;;;11.68;7.88;;;16.90;99.90;;;;;;5007176;28;20064;-49
2021/09/30 07:47:04;;;;;;;10.93;8.50;;;16.80;99.90;;;;;;4993071;28;20200;-50
2021/09/30 07:49:31;;;;;;;13.60;7.85;;;16.80;99.90;;;;;;5004724;28;20045;-51
2021/09/30 07:51:57;;;;;;;10.68;8.07;;;16.90;99.90;;;;;;5010635;28;20083;-48
2021/09/30 07:54:23;;;;;;;11.55;8.57;;;16.90;99.90;;;;;;5011440;28;20120;-51
2021/09/30 07:56:50;;;;;;;13.73;9.27;;;17.00;99.90;;;;;;5010876;28;20036;-50
2021/09/30 07:59:15;;;;;;;11.38;9.60;;;16.90;99.90;;;;;;5009642;28;20033;-51
2021/09/30 08:01:41;;;;;;;16.38;10.73;;;16.90;99.90;;;;;;4993295;28;20030;-51
2021/09/30 08:04:07;;;;;;;16.08;11.50;;;16.80;99.90;;;;;;5012598;28;20026;-48
2021/09/30 08:06:33;;;;;;;20.00;13.32;;;16.70;99.90;;;;;;5006299;28;20052;-47
2021/09/30 08:08:59;;;;;;;18.88;13.10;;;16.70;99.90;;;;;;4972220;28;20073;-48
2021/09/30 08:11:27;;;;;;;17.95;13.85;;;16.60;99.90;;;;;;4988820;28;20136;-50
2021/09/30 08:13:53;;;;;;;19.17;12.90;;;16.70;99.90;;;;;;4983708;28;20042;-49
2021/09/30 08:16:21;;;;;;;14.27;10.95;;;16.70;99.90;;;;;;4989467;28;20092;-49
2021/09/30 08:18:47;;;;;;;14.45;10.65;;;16.70;99.90;;;;;;4993246;28;20446;-48
2021/09/30 08:21:15;;;;;;;19.70;11.27;;;16.70;99.90;;;;;;4991458;28;20030;-51
2021/09/30 08:23:42;;;;;;;12.15;9.57;;;16.70;99.90;;;;;;4992852;28;20086;-53
2021/09/30 08:26:08;;;;;;;11.57;8.52;;;16.80;99.90;;;;;;4993318;28;20514;-51
2021/09/30 08:28:36;;;;;;;9.57;8.27;;;16.90;99.90;;;;;;4993742;28;20034;-50
2021/09/30 08:31:03;;;;;;;13.95;9.00;;;17.00;99.90;;;;;;4994262;28;20030;-50
2021/09/30 08:33:29;;;;;;;10.70;8.35;;;17.00;99.90;;;;;;4993787;28;20030;-49
2021/09/30 08:35:55;;;;;;;11.13;7.55;;;17.00;99.90;;;;;;4993796;28;20023;-50
2021/09/30 08:38:21;;;;;;;15.35;8.63;;;17.00;99.90;;;;;;4993197;28;20129;-52
2021/09/30 08:40:47;;;;;;;22.08;11.68;;;16.90;99.90;;;;;;5006641;28;20053;-51
2021/09/30 08:43:14;;;;;;;12.70;7.75;;;16.90;99.90;;;;;;5012785;28;20029;-51
2021/09/30 08:45:39;;;;;;;11.05;7.70;;;16.90;99.90;;;;;;5015403;28;20032;-50
2021/09/30 08:48:07;;;;;;;14.43;8.00;;;17.00;99.90;;;;;;5012144;28;20029;-50
2021/09/30 08:50:38;;;;;;;14.13;10.23;;;17.00;99.90;;;;;;5014636;28;20410;-51
2021/09/30 08:53:06;;;;;;;12.07;8.52;;;17.00;99.90;;;;;;5012319;28;20037;-50
2021/09/30 08:55:32;;;;;;;13.57;8.68;;;16.90;99.90;;;;;;5009354;28;20053;-49
2021/09/30 08:58:02;;;;;;;11.40;8.43;;;17.00;99.90;;;;;;5012556;28;20050;-49
2021/09/30 09:00:30;;;;;;;12.65;8.43;;;17.00;99.90;;;;;;4994341;28;20077;-51
2021/09/30 09:02:55;;;;;;;12.60;8.90;;;16.90;99.90;;;;;;5013476;28;20045;-52
2021/09/30 09:05:22;;;;;;;11.90;8.38;;;16.80;99.90;;;;;;5008884;28;20057;-52
2021/09/30 09:07:56;;;;;;;15.10;9.35;;;16.80;99.90;;;;;;5015017;28;20034;-52
2021/09/30 09:10:25;;;;;;;9.95;8.95;;;16.70;99.90;;;;;;5011186;28;20041;-50
2021/09/30 09:13:14;;;;;;;14.07;9.25;;;16.60;99.90;;;;;;5011187;28;20077;-52
2021/09/30 09:15:46;;;;;;;10.02;8.23;;;16.60;99.90;;;;;;5011118;28;20142;-53
2021/09/30 09:18:12;;;;;;;;;;;16.50;99.90;;;;;;5011555;28;20026;-50
2021/09/30 09:20:38;;;;;;;10.70;8.63;;;16.40;99.90;;;;;;5011562;28;19917;-48
2021/09/30 09:23:03;;;;;;;17.23;10.95;;;16.50;99.90;;;;;;5010424;28;20153;-49
2021/09/30 09:25:30;;;;;;;14.35;10.63;;;16.60;99.90;;;;;;4991113;28;20048;-51
2021/09/30 09:28:00;;;;;;;13.73;9.38;;;16.80;99.90;;;;;;5010687;28;20111;-51
2021/09/30 09:30:47;;;;;;;16.33;9.68;;;16.80;99.90;;;;;;5008738;28;20045;-51
2021/09/30 09:33:24;;;;;;;18.83;11.35;;;16.70;99.90;;;;;;5007294;28;20081;-49
2021/09/30 09:36:03;;;;;;;15.10;10.98;;;16.70;99.90;;;;;;5011131;28;20088;-49
2021/09/30 09:38:42;;;;;;;12.25;9.65;;;16.70;99.90;;;;;;5014366;28;20054;-53
2021/09/30 09:41:13;;;;;;;18.20;10.75;;;16.70;99.90;;;;;;5010996;28;20116;-49
2021/09/30 09:43:45;;;;;;;13.68;10.00;;;16.60;99.90;;;;;;5004931;28;20038;-51
2021/09/30 09:46:13;;;;;;;13.32;10.55;;;16.60;99.90;;;;;;5011968;28;20121;-51
2021/09/30 09:48:40;;;;;;;13.85;9.60;;;16.60;99.90;;;;;;5011157;28;20033;-52
2021/09/30 09:51:11;;;;;;;17.88;10.32;;;16.70;99.90;;;;;;5013400;28;20037;-48
2021/09/30 09:53:38;;;;;;;17.98;12.10;;;16.50;99.90;;;;;;5022788;28;20030;-49
2021/09/30 09:56:20;;;;;;;22.40;11.82;;;16.60;99.90;;;;;;5008051;28;20038;-50
2021/09/30 09:58:54;;;;;;;17.17;12.30;;;16.70;99.90;;;;;;5008384;28;20593;-50
2021/09/30 10:01:25;;;;;;;15.40;10.90;;;16.90;99.90;;;;;;5008449;28;20438;-50
2021/09/30 10:03:58;;;;;;;12.32;10.82;;;16.80;99.90;;;;;;5011880;28;20489;-52
2021/09/30 10:06:25;;;;;;;14.55;11.88;;;16.80;99.90;;;;;;5008284;28;20060;-52
2021/09/30 10:08:51;;;;;;;14.70;11.63;;;16.80;99.90;;;;;;5025539;28;20394;-50
2021/09/30 10:11:17;;;;;;;14.98;10.70;;;16.80;99.90;;;;;;4991379;28;20038;-53
2021/09/30 10:13:44;;;;;;;14.75;11.18;;;16.70;99.90;;;;;;4982197;28;20336;-50
2021/09/30 10:16:10;;;;;;;14.95;10.63;;;16.70;99.90;;;;;;4987875;28;20043;-51
2021/09/30 10:18:36;;;;;;;20.88;12.57;;;16.70;99.90;;;;;;4958691;28;20030;-52
2021/09/30 10:21:02;;;;;;;17.42;12.40;;;16.80;99.90;;;;;;4983362;28;20078;-52
2021/09/30 10:23:35;;;;;;;16.35;12.25;;;16.90;99.90;;;;;;4959044;28;20049;-52
2021/09/30 10:26:16;;;;;;;16.35;11.63;;;16.80;99.90;;;;;;4984248;28;20226;-50
2021/09/30 10:28:44;;;;;;;18.80;11.37;;;16.80;99.90;;;;;;4987285;28;20030;-52
2021/09/30 10:31:26;;;;;;;17.00;11.05;;;16.90;99.90;;;;;;4990138;28;20030;-53
2021/09/30 10:33:53;;;;;;;17.15;11.73;;;16.90;99.90;;;;;;4984273;28;20043;-56
2021/09/30 10:36:40;;;;;;;14.63;11.35;;;16.90;99.90;;;;;;4987931;28;20126;-46
2021/09/30 10:39:24;;;;;;;13.02;10.13;;;16.80;99.90;;;;;;4974367;28;20042;-47
2021/09/30 10:41:57;;;;;;;13.07;10.40;;;16.80;99.90;;;;;;4967703;28;20069;-47
2021/09/30 10:44:26;;;;;;;15.77;11.70;;;16.80;99.90;;;;;;5008739;28;20030;-47
2021/09/30 10:46:55;;;;;;;14.40;10.98;;;16.60;99.90;;;;;;5009932;28;20104;-52
2021/09/30 10:49:42;;;;;;;15.60;10.52;;;16.70;99.90;;;;;;5008980;28;20132;-50
2021/09/30 10:52:31;;;;;;;16.35;11.27;;;16.70;99.90;;;;;;5009756;28;20064;-51
2021/09/30 10:55:00;;;;;;;16.77;10.43;;;16.50;99.90;;;;;;5009885;28;20046;-50
2021/09/30 10:57:36;;;;;;;13.10;10.35;;;16.60;99.90;;;;;;5001945;28;20031;-50
2021/09/30 11:00:06;;;;;;;16.38;11.10;;;16.60;99.90;;;;;;5006938;28;20022;-51
2021/09/30 11:03:01;;;;;;;14.88;10.93;;;16.60;99.90;;;;;;5010829;28;20474;-50
2021/09/30 11:05:27;;;;;;;15.27;10.32;;;16.60;99.90;;;;;;5006509;28;20103;-50
2021/09/30 11:08:21;;;;;;;12.20;9.65;;;16.70;99.90;;;;;;5008984;28;20026;-52
2021/09/30 11:11:09;;;;;;;13.88;10.57;;;16.80;99.90;;;;;;5006719;28;20056;-49
2021/09/30 11:13:55;;;;;;;13.60;9.32;;;16.80;99.90;;;;;;5005699;28;20037;-50
2021/09/30 11:16:36;;;;;;;12.60;9.85;;;16.80;99.90;;;;;;5008799;28;20112;-50
2021/09/30 11:19:03;;;;;;;11.65;9.40;;;16.80;99.90;;;;;;4991030;28;20073;-52
2021/09/30 11:21:31;;;;;;;14.60;9.40;;;16.80;99.90;;;;;;4981840;28;20039;-50
2021/09/30 11:24:03;;;;;;;12.60;10.07;;;16.80;99.90;;;;;;4990196;28;20042;-50
2021/09/30 11:26:32;;;;;;;13.40;9.70;;;16.80;99.90;;;;;;4983390;28;20027;-51
2021/09/30 11:29:24;;;;;;;14.60;9.18;;;16.80;99.90;;;;;;4957958;28;20053;-50
2021/09/30 11:31:59;;;;;;;14.00;9.43;;;16.80;99.90;;;;;;4954442;28;20552;-50
2021/09/30 11:34:31;;;;;;;15.43;9.23;;;16.90;99.90;;;;;;4991246;28;20034;-51
2021/09/30 11:36:59;;;;;;;13.48;8.88;;;16.90;99.90;;;;;;4991398;28;20030;-50
2021/09/30 11:39:34;;;;;;;14.10;9.68;;;17.10;99.90;;;;;;4945187;29;20086;-50
2021/09/30 11:42:01;;;;;;;11.98;8.98;;;17.10;99.90;;;;;;4950269;29;20131;-50
2021/09/30 11:44:27;;;;;;;14.02;10.05;;;17.20;99.90;;;;;;4951244;29;20082;-50
2021/09/30 11:46:56;;;;;;;13.10;9.48;;;17.20;99.90;;;;;;4948133;29;20146;-50
2021/09/30 11:49:23;;;;;;;11.45;9.18;;;17.20;99.90;;;;;;4938621;28;20046;-50
2021/09/30 11:51:56;;;;;;;13.20;10.20;;;17.20;99.90;;;;;;4971011;28;20494;-50
2021/09/30 11:54:25;;;;;;;13.13;9.85;;;17.30;99.90;;;;;;4963619;28;20149;-51
2021/09/30 11:56:54;;;;;;;11.05;9.48;;;17.30;99.90;;;;;;4969953;28;20500;-51
2021/09/30 11:59:23;;;;;;;11.77;10.15;;;17.40;99.90;;;;;;4963906;28;20186;-50
2021/09/30 12:01:53;;;;;;;11.82;9.73;;;17.50;99.90;;;;;;4969856;28;20039;-50
2021/09/30 12:04:43;;;;;;;13.30;10.77;;;17.60;99.90;;;;;;4968744;28;20451;-50
2021/09/30 12:07:21;;;;;;;14.05;10.15;;;17.60;99.90;;;;;;4971470;28;20031;-50
2021/09/30 12:09:50;;;;;;;14.27;10.20;;;17.60;99.90;;;;;;4979508;28;20084;-51
2021/09/30 12:12:16;;;;;;;11.90;9.75;;;17.60;99.90;;;;;;5010650;28;20036;-50
2021/09/30 12:14:45;;;;;;;11.82;10.15;;;17.60;99.90;;;;;;5014700;28;20054;-51
2021/09/30 12:17:14;;;;;;;13.60;10.45;;;17.60;99.90;;;;;;4999459;28;20030;-51
2021/09/30 12:19:47;;;;;;;13.63;10.88;;;17.60;99.90;;;;;;5008594;28;20029;-51
2021/09/30 12:22:18;;;;;;;16.40;10.85;;;17.60;99.90;;;;;;5012551;28;20026;-50
2021/09/30 12:24:50;;;;;;;12.52;9.85;;;17.60;99.90;;;;;;5009995;28;20490;-50
2021/09/30 12:27:17;;;;;;;12.68;10.25;;;17.60;99.90;;;;;;5007772;28;20474;-51
2021/09/30 12:29:46;;;;;;;15.02;10.43;;;17.50;99.90;;;;;;5012502;28;20092;-51
2021/09/30 12:32:15;;;;;;;13.98;10.32;;;17.60;99.90;;;;;;5008488;28;20034;-51
2021/09/30 12:34:55;;;;;;;12.60;10.57;;;17.60;99.90;;;;;;5010910;28;20487;-49
2021/09/30 12:37:28;;;;;;;13.25;10.80;;;17.70;99.90;;;;;;5020651;28;20522;-49
2021/09/30 12:40:02;;;;;;;17.02;11.13;;;17.50;99.90;;;;;;5008389;28;20580;-49
2021/09/30 12:42:28;;;;;;;15.90;10.98;;;17.40;99.90;;;;;;5013925;28;20072;-50
2021/09/30 12:44:55;;;;;;;20.20;11.10;;;17.40;99.90;;;;;;4995486;28;20121;-49
2021/09/30 12:47:30;;;;;;;15.25;10.60;;;17.50;99.90;;;;;;5010759;28;20049;-49
2021/09/30 12:50:18;;;;;;;13.05;11.30;;;17.50;99.90;;;;;;5004923;28;20046;-49
2021/09/30 12:52:45;;;;;;;16.10;11.65;;;17.50;99.90;;;;;;4973849;28;20443;-51
2021/09/30 12:55:19;;;;;;;17.73;12.07;;;17.60;99.90;;;;;;4972690;28;20494;-51
2021/09/30 12:57:45;;;;;;;16.48;11.68;;;17.50;99.90;;;;;;4973850;28;20050;-52
2021/09/30 13:00:17;;;;;;;16.05;12.02;;;17.50;99.90;;;;;;4971619;28;20363;-54
2021/09/30 13:02:47;;;;;;;17.17;11.75;;;17.60;99.90;;;;;;4956231;28;20050;-50
2021/09/30 13:05:14;;;;;;;12.55;10.60;;;17.60;99.90;;;;;;4968919;28;20042;-52
2021/09/30 13:07:58;;;;;;;14.75;11.32;;;17.60;99.90;;;;;;4973756;28;20522;-51
2021/09/30 13:10:34;;;;;;;17.67;12.05;;;17.60;99.90;;;;;;4972272;28;20145;-51
2021/09/30 13:13:14;;;;;;;16.17;11.20;;;17.60;99.90;;;;;;4940842;28;20097;-51
2021/09/30 13:15:44;;;;;;;18.00;12.07;;;17.60;99.90;;;;;;4972175;28;20379;-52
2021/09/30 13:18:15;;;;;;;13.70;11.70;;;17.60;99.90;;;;;;4963835;28;20094;-50
2021/09/30 13:20:43;;;;;;;24.50;13.45;;;17.50;99.90;;;;;;4922546;29;20031;-52
2021/09/30 13:23:10;;;;;;;22.00;13.90;;;17.60;99.90;;;;;;4951981;29;20081;-51
2021/09/30 13:25:37;;;;;;;19.23;13.70;;;17.50;99.90;;;;;;4952038;28;20031;-51
2021/09/30 13:28:03;;;;;;;15.15;12.60;;;17.40;99.90;;;;;;4953679;28;20515;-51
2021/09/30 13:30:32;;;;;;;18.98;11.85;;;17.40;99.90;;;;;;4980151;28;20038;-51
2021/09/30 13:33:01;;;;;;;18.23;12.43;;;17.40;99.90;;;;;;4988448;28;20042;-53
2021/09/30 13:35:30;;;;;;;20.15;13.00;;;17.30;99.90;;;;;;4989882;28;20039;-50
2021/09/30 13:37:57;;;;;;;16.83;13.05;;;17.30;99.90;;;;;;4990588;28;20035;-52
2021/09/30 13:40:24;;;;;;;23.08;13.40;;;17.30;99.90;;;;;;4990415;28;20026;-51
2021/09/30 13:42:50;;;;;;;20.65;13.02;;;17.30;99.90;;;;;;4991328;28;20113;-51
2021/09/30 13:45:18;;;;;;;24.08;14.80;;;17.30;99.90;;;;;;5009610;28;20541;-51
2021/09/30 13:47:44;;;;;;;19.65;13.10;;;17.30;99.90;;;;;;5011942;28;20022;-50
2021/09/30 13:50:16;;;;;;;16.38;14.57;;;17.10;99.90;;;;;;5007318;28;20045;-51
2021/09/30 13:52:44;;;;;;;19.95;14.20;;;16.90;99.90;;;;;;5011137;28;20026;-52
2021/09/30 13:55:11;;;;;;;19.40;14.73;;;16.90;99.90;;;;;;5009821;28;20084;-52
2021/09/30 13:57:37;;;;;;;26.10;15.95;;;16.80;99.90;;;;;;5001503;28;20030;-52
2021/09/30 14:00:06;;;;;;;24.25;16.90;;;17.00;99.90;;;;;;5010494;28;20030;-51
2021/09/30 14:02:33;;;;;;;21.38;17.08;;;17.10;99.90;;;;;;4967586;28;20045;-52
2021/09/30 14:04:58;;;;;;;25.70;16.85;;;17.20;99.90;;;;;;5010590;28;20402;-52
2021/09/30 14:07:24;;;;;;;20.33;17.10;;;17.10;99.90;;;;;;5012478;28;20029;-51
2021/09/30 14:09:50;;;;;;;24.83;17.65;;;17.20;99.90;;;;;;4990259;28;20141;-50
2021/09/30 14:12:16;;;;;;;21.27;17.67;;;17.30;99.90;;;;;;4957491;28;20839;-53
2021/09/30 14:14:42;;;;;;;26.30;19.33;;;17.30;99.90;;;;;;4989345;28;20093;-50
2021/09/30 14:17:08;;;;;;;22.98;19.00;;;17.40;99.90;;;;;;4957340;28;20592;-52
2021/09/30 14:19:34;;;;;;;29.02;20.95;;;17.50;99.90;;;;;;4990927;28;20042;-52
2021/09/30 14:22:00;;;;;;;21.75;17.52;;;17.50;99.90;;;;;;4934147;28;20039;-50
2021/09/30 14:24:30;;;;;;;22.00;17.13;;;17.50;99.90;;;;;;4916812;28;20043;-50
2021/09/30 14:26:56;;;;;;;22.95;16.15;;;17.40;99.90;;;;;;4946396;28;20506;-50
2021/09/30 14:29:22;;;;;;;20.23;17.25;;;17.40;99.90;;;;;;4946758;28;20048;-47
2021/09/30 14:31:48;;;;;;;23.92;17.73;;;17.40;99.90;;;;;;4917760;28;20047;-51
2021/09/30 14:34:14;;;;;;;25.35;19.15;;;17.50;99.90;;;;;;4950193;28;20046;-50
2021/09/30 14:36:39;;;;;;;26.30;21.40;;;17.50;99.90;;;;;;4945551;28;20043;-49
2021/09/30 14:39:06;;;;;;;32.45;25.20;;;17.20;99.90;;;;;;4884428;28;20051;-50
2021/09/30 14:41:33;;;;;;;30.88;25.23;;;17.20;99.90;;;;;;4953501;28;20129;-50
2021/09/30 14:43:59;;;;;;;29.65;21.70;;;17.30;99.90;;;;;;4987887;28;20037;-50
2021/09/30 14:46:25;;;;;;;30.27;23.90;;;17.30;99.90;;;;;;4987247;28;20533;-47
2021/09/30 14:48:51;;;;;;;31.92;24.63;;;17.20;99.90;;;;;;4988609;28;20097;-55
2021/09/30 14:51:18;;;;;;;25.65;19.15;;;17.10;99.90;;;;;;4956397;28;20406;-51
2021/09/30 14:53:44;;;;;;;27.42;19.88;;;17.00;99.90;;;;;;4982402;28;20070;-47
2021/09/30 14:56:10;;;;;;;25.15;20.00;;;16.90;99.90;;;;;;4953164;28;20065;-49
2021/09/30 14:58:36;;;;;;;25.25;20.00;;;17.00;99.90;;;;;;4922838;28;20502;-49
2021/09/30 15:01:05;;;;;;;27.17;21.77;;;16.90;99.90;;;;;;4989283;28;20038;-49
2021/09/30 15:03:31;;;;;;;24.98;20.05;;;17.00;99.90;;;;;;4969826;28;20398;-48
2021/09/30 15:05:57;;;;;;;24.55;19.92;;;17.00;99.90;;;;;;4987227;28;20026;-49
2021/09/30 15:08:22;;;;;;;28.67;20.50;;;16.80;99.90;;;;;;4940875;28;20210;-50
2021/09/30 15:10:48;;;;;;;25.10;19.77;;;16.70;99.90;;;;;;4933786;29;20066;-47
2021/09/30 15:13:14;;;;;;;21.10;18.45;;;16.80;99.90;;;;;;4950187;29;20101;-49
2021/09/30 15:15:40;;;;;;;29.38;22.02;;;16.80;99.90;;;;;;4949697;28;20043;-48
2021/09/30 15:18:22;;;;;;;26.05;21.65;;;16.90;99.90;;;;;;4934886;29;20035;-48
2021/09/30 15:23:33;;;;;;;22.23;19.40;;;16.80;99.90;;;;;;4951325;28;20086;-48
2021/09/30 15:25:58;;;;;;;24.05;19.70;;;16.70;99.90;;;;;;4953779;28;20067;-48
2021/09/30 15:28:26;;;;;;;24.10;20.65;;;16.70;99.90;;;;;;4931688;29;20043;-47
2021/09/30 15:30:55;;;;;;;29.08;21.92;;;16.60;99.90;;;;;;4992724;28;20050;-47
2021/09/30 15:33:21;;;;;;;25.02;20.35;;;16.80;99.90;;;;;;4994170;28;20490;-47
2021/09/30 15:35:46;;;;;;;24.95;20.40;;;16.70;99.90;;;;;;4973820;28;20070;-48
2021/09/30 15:38:13;;;;;;;26.75;21.85;;;16.60;99.90;;;;;;4974262;28;20035;-48
2021/09/30 15:40:40;;;;;;;24.90;20.20;;;16.80;99.90;;;;;;4958311;28;20035;-48
2021/09/30 15:43:06;;;;;;;26.38;20.80;;;16.90;99.90;;;;;;4974021;28;20066;-47
2021/09/30 15:45:32;;;;;;;27.45;21.02;;;17.00;99.90;;;;;;4974030;28;20959;-47
2021/09/30 15:47:58;;;;;;;26.48;21.63;;;17.10;99.90;;;;;;4985670;28;20045;-46
2021/09/30 15:50:24;;;;;;;26.30;21.60;;;17.10;99.90;;;;;;5012423;28;20125;-47